WetterOnline ( https://www.wetteronline.de )

Wetter aktuell Bohumín

Aktuelles Wetter: Ostrava (260m)

6-stündlich | Neueste Meldungen
Ortszeit Temperatur Wetter
Fr, 24.01. 13:00 0.4° C wolkig
Fr, 24.01. 7:00 -1.5° C wolkenlos
Fr, 24.01. 1:00 -2.9° C wolkenlos
Do, 23.01. 19:00 -1.5° C wolkenlos
Do, 23.01. 13:00 4.2° C leicht bewölkt
Do, 23.01. 7:00 -0.3° C bedeckt
Do, 23.01. 1:00 -2.0° C bewölkt
Mi, 22.01. 19:00 -1.3° C leichter Schneefall
Ortszeit Temperatur Wetter
Fr, 24.01. 15:00 -0.7° C bedeckt
Fr, 24.01. 14:30 -1° C bewölkt
Fr, 24.01. 14:00 -0.3° C bewölkt
Fr, 24.01. 13:30 0° C bewölkt
Fr, 24.01. 13:00 0.4° C wolkig
Fr, 24.01. 12:30 1° C leicht bewölkt
Fr, 24.01. 12:00 0.7° C leicht bewölkt
Fr, 24.01. 11:30 1° C leicht bewölkt
Ortszeit Relative Feuchte Sichtweite
Fr, 24.01. 13:00 83% 6 km
Fr, 24.01. 7:00 84% 20 km
Fr, 24.01. 1:00 91% 10 km
Do, 23.01. 19:00 84% 12 km
Do, 23.01. 13:00 61% 20 km
Do, 23.01. 7:00 93% 8 km
Do, 23.01. 1:00 97% 4.5 km
Mi, 22.01. 19:00 91% 4.0 km
Ortszeit Relative Feuchte Sichtweite
Fr, 24.01. 15:00 86% 6 km
Fr, 24.01. 14:30 86% 6 km
Fr, 24.01. 14:00 84% 6 km
Fr, 24.01. 13:30 86% 6 km
Fr, 24.01. 13:00 83% 6 km
Fr, 24.01. 12:30 80% 7 km
Fr, 24.01. 12:00 84% 7 km
Fr, 24.01. 11:30 80% 8 km
Ortszeit Niederschlagsmenge Niederschlagsart
Fr, 24.01. 13:00 0.0 l/m2 in 6 Std. -
Fr, 24.01. 7:00 0.0 l/m2 in 12 Std. -
Fr, 24.01. 1:00 0.0 l/m2 in 6 Std. -
Do, 23.01. 19:00 0.0 l/m2 in 12 Std. -
Do, 23.01. 13:00 0.0 l/m2 in 6 Std. -
Do, 23.01. 7:00 0.1 l/m2 in 12 Std. -
Do, 23.01. 1:00 0.1 l/m2 in 6 Std. Schnee
Mi, 22.01. 19:00 0.1 l/m2 in 12 Std. Schnee
Ortszeit Niederschlagsmenge Niederschlagsart
Fr, 24.01. 15:00 0.0 l/m2 in 1 Std. -
Fr, 24.01. 14:30 keine Meldung -
Fr, 24.01. 14:00 0.0 l/m2 in 1 Std. -
Fr, 24.01. 13:30 keine Meldung -
Fr, 24.01. 13:00 0.0 l/m2 in 1 Std. -
Fr, 24.01. 12:30 keine Meldung -
Fr, 24.01. 12:00 0.0 l/m2 in 1 Std. -
Fr, 24.01. 11:30 keine Meldung -
Ortszeit Stärke Spitze Richtung
km/h Bft. km/h Grad Sektor
Fr, 24.01. 13:00 36 5 54 240° SW
Fr, 24.01. 7:00 29 5 - 240° SW
Fr, 24.01. 1:00 18 3 - 240° SW
Do, 23.01. 19:00 7 2 - 200° S
Do, 23.01. 13:00 11 2 - 230° SW
Do, 23.01. 7:00 7 2 - 240° SW
Do, 23.01. 1:00 4 1 - 220° SW
Mi, 22.01. 19:00 14 3 40 210° SW
Ortszeit Stärke Spitze Richtung
km/h Bft. km/h Grad Sektor
Fr, 24.01. 15:00 29 5 47 250° W
Fr, 24.01. 14:30 33 5 - 240° SW
Fr, 24.01. 14:00 36 5 54 240° SW
Fr, 24.01. 13:30 33 5 - 240° SW
Fr, 24.01. 13:00 36 5 54 240° SW
Fr, 24.01. 12:30 35 5 - 240° SW
Fr, 24.01. 12:00 40 6 54 240° SW
Fr, 24.01. 11:30 37 5 - 240° SW
Ortszeit Untergrenze Bedeckung Gattung
total tief tief mittel hoch
Fr, 24.01. 13:00 360 m 5/8 5/8 St - -
Fr, 24.01. 7:00 - 0/8 0/8 - - -
Fr, 24.01. 1:00 - 0/8 0/8 - - -
Do, 23.01. 19:00 - 0/8 0/8 - - -
Do, 23.01. 13:00 900 m 4/8 4/8 Sc - -
Do, 23.01. 7:00 300 m 8/8 8/8 St - -
Do, 23.01. 1:00 450 m 7/8 7/8 Sc - -
Mi, 22.01. 19:00 480 m 8/8 8/8 Sc - -
Ortszeit Bedeckungsgrad in Achtel und Wolkenuntergrenze
Fr, 24.01. 15:00 8(300m)
Fr, 24.01. 14:30 5-7(330m)
Fr, 24.01. 14:00 5(300m) 7(690m)
Fr, 24.01. 13:30 5-7(330m) 5-7(750m)
Fr, 24.01. 13:00 5(360m)
Fr, 24.01. 12:30 3-4(330m)
Fr, 24.01. 12:00 4(300m)
Fr, 24.01. 11:30 3-4(390m)
Ortszeit Luftdruck NN (hPa) Tendenz (hPa in 3 Std.)
Fr, 24.01. 13:00 1025 - 1,7
Fr, 24.01. 7:00 1027 - 1,3
Fr, 24.01. 1:00 1030 - 1,5
Do, 23.01. 19:00 1033 - 0,9
Do, 23.01. 13:00 1035 - 1,6
Do, 23.01. 7:00 1037 + 1,1
Do, 23.01. 1:00 1035 + 1,1
Mi, 22.01. 19:00 1032 + 1,5
Ortszeit Luftdruck NN (hPa) Tendenz (hPa in 3 Std.)
Fr, 24.01. 15:00 1025 - 0,8
Fr, 24.01. 14:30 1023 keine Meldung
Fr, 24.01. 14:00 1025 - 1,5
Fr, 24.01. 13:30 1023 keine Meldung
Fr, 24.01. 13:00 1025 - 1,7
Fr, 24.01. 12:30 1023 keine Meldung
Fr, 24.01. 12:00 1026 - 1,3
Fr, 24.01. 11:30 1024 keine Meldung
Ortszeit Schneehöhe (cm)
Fr, 24.01. 13:00 -
Fr, 24.01. 7:00 -
Fr, 24.01. 1:00 -
Do, 23.01. 19:00 0
Do, 23.01. 13:00 -
Do, 23.01. 7:00 0
Do, 23.01. 1:00 -
Mi, 22.01. 19:00 0
Ortszeit Schneehöhe (cm)
Fr, 24.01. 15:00 -
Fr, 24.01. 14:30 -
Fr, 24.01. 14:00 -
Fr, 24.01. 13:30 -
Fr, 24.01. 13:00 -
Fr, 24.01. 12:30 -
Fr, 24.01. 12:00 -
Fr, 24.01. 11:30 -
Link zu dieser Seite / Seite empfehlen

Das Wetter in ...